Pismo Beach, California
Current Conditions -  °F | °C
As of 1:56 PM on Saturday 20 Dec 2014 (Local Time) from KSBP Reporting Station
Broken Clouds Broken Clouds  
Wind Chill: 18°   Ceiling: 2000
Heat Index: 18°   Visibility: 10mi
Dew Point: 14°   Wind: 7mph
Humidity: 78%   Direction: 300°WNW
Pressure: 30.14"   Gusts: NA
Location:  35.16°N, 120.66°W
Report Text: KSBP 202156Z 30006KT 10SM BKN020 BKN042 18/14 A3014 RMK AO2 SLP207 T01780139
Loading
Personal Weather Stations






























Interactive Weather Map New forecast layout! Learn more

10-Day Weather Forecast

Advertisements
Track Severe Weather on mobile